Time;durP1;ratioP1;P1;durP2;ratioP2;P2;SDS_P1;SDS_P2;PMS_P1;PMS_P2;Temp;Humidity;BMP_temperature;BMP_pressure;BME280_temperature;BME280_humidity;BME280_pressure;Samples;Min_cycle;Max_cycle;Signal;HPM_P1;HPM_P2
2021/05/30 12:35:49;;;;;;;3.80;2.00;;;;;;;21.84;32.42;101316.41;5040884;28;20411;-71
2021/05/30 12:38:16;;;;;;;2.38;1.80;;;;;;;22.12;33.30;101318.06;5048957;28;20053;-73
2021/05/30 12:40:43;;;;;;;2.60;1.90;;;;;;;22.58;32.16;101316.34;5055892;28;20045;-72
2021/05/30 12:43:09;;;;;;;2.75;1.88;;;;;;;22.69;30.83;101319.22;5053487;28;20121;-72
2021/05/30 12:45:36;;;;;;;3.20;2.03;;;;;;;22.64;30.98;101310.94;5046755;28;20429;-72
2021/05/30 12:48:01;;;;;;;2.42;1.60;;;;;;;22.80;31.48;101309.63;5051450;28;20087;-72
2021/05/30 12:50:40;;;;;;;2.85;1.67;;;;;;;22.90;31.68;101309.97;5051483;28;20497;-72
2021/05/30 12:53:06;;;;;;;2.97;2.00;;;;;;;22.96;31.70;101316.41;5056170;28;20036;-72
2021/05/30 12:55:40;;;;;;;3.65;1.90;;;;;;;22.87;30.97;101312.28;5059560;28;20416;-72
2021/05/30 12:58:19;;;;;;;3.58;1.60;;;;;;;22.92;31.60;101309.78;5058610;28;20067;-71
2021/05/30 13:00:44;;;;;;;2.97;2.08;;;;;;;22.93;31.54;101299.81;5047393;28;20033;-72
2021/05/30 13:03:10;;;;;;;3.13;1.95;;;;;;;22.89;31.55;101296.72;5052242;28;20036;-73
2021/05/30 13:05:40;;;;;;;6.30;1.80;;;;;;;22.97;32.06;101301.88;5054975;28;20033;-72
2021/05/30 13:08:23;;;;;;;2.67;1.92;;;;;;;22.94;32.07;101296.91;5063487;28;20520;-71
2021/05/30 13:10:59;;;;;;;2.65;2.03;;;;;;;23.22;31.53;101290.38;5057318;28;20060;-72
2021/05/30 13:13:33;;;;;;;3.35;1.92;;;;;;;23.55;31.36;101290.16;5060783;28;20043;-74
2021/05/30 13:16:00;;;;;;;2.58;1.80;;;;;;;23.68;30.77;101286.50;5053976;28;20036;-73
2021/05/30 13:18:30;;;;;;;3.72;2.10;;;;;;;23.79;29.65;101283.13;5055951;28;20045;-74
2021/05/30 13:20:57;;;;;;;3.97;1.98;;;;;;;23.87;31.03;101288.25;5066509;28;20025;-74
2021/05/30 13:23:28;;;;;;;2.75;2.00;;;;;;;23.77;31.47;101287.09;5045999;28;20029;-73
2021/05/30 13:26:05;;;;;;;2.80;2.00;;;;;;;23.65;31.50;101284.25;5055026;28;20121;-74
2021/05/30 13:28:39;;;;;;;2.85;1.90;;;;;;;23.52;32.38;101280.59;5056148;28;20037;-73
2021/05/30 13:31:12;;;;;;;2.78;1.90;;;;;;;23.72;31.34;101279.63;5060143;28;20037;-74
2021/05/30 13:33:39;;;;;;;2.80;1.90;;;;;;;23.34;31.46;101264.34;5054654;28;20033;-73
2021/05/30 13:36:05;;;;;;;3.33;1.83;;;;;;;23.37;31.71;101263.06;5064634;28;20036;-73
2021/05/30 13:38:31;;;;;;;2.60;1.75;;;;;;;23.45;31.08;101258.22;5056711;28;20037;-73
2021/05/30 13:40:58;;;;;;;2.83;1.60;;;;;;;23.36;31.09;101264.94;5065747;28;20036;-74
2021/05/30 13:43:24;;;;;;;2.92;1.85;;;;;;;23.46;30.65;101243.69;5051911;28;20111;-73
2021/05/30 13:45:49;;;;;;;2.47;1.63;;;;;;;23.17;31.21;101245.16;5048173;28;20371;-73
2021/05/30 13:48:16;;;;;;;2.63;1.70;;;;;;;22.93;31.53;101235.94;5048518;28;20029;-75
2021/05/30 13:51:00;;;;;;;2.33;1.73;;;;;;;23.05;31.33;101228.84;5043830;28;20043;-73
2021/05/30 13:53:26;;;;;;;3.40;2.03;;;;;;;23.39;29.96;101226.72;5044396;28;20389;-74
2021/05/30 13:55:51;;;;;;;3.65;1.90;;;;;;;23.25;30.16;101227.88;5044431;28;20037;-74
2021/05/30 13:58:16;;;;;;;2.58;1.50;;;;;;;23.34;29.96;101223.84;5045958;28;20039;-74
2021/05/30 14:00:42;;;;;;;2.90;1.70;;;;;;;23.08;30.38;101236.47;5044507;28;20396;-75
2021/05/30 14:03:08;;;;;;;3.28;2.00;;;;;;;22.69;31.30;101224.00;5046564;28;20183;-74
2021/05/30 14:05:34;;;;;;;3.85;1.80;;;;;;;22.67;31.46;101213.44;5042588;28;20115;-74
2021/05/30 14:07:59;;;;;;;3.35;1.67;;;;;;;22.65;32.09;101212.84;5040937;28;20129;-74
2021/05/30 14:10:24;;;;;;;3.80;1.90;;;;;;;22.79;31.97;101215.47;5041776;28;20371;-74
2021/05/30 14:12:50;;;;;;;2.97;1.75;;;;;;;22.66;31.37;101219.88;5040029;28;20292;-74
2021/05/30 14:15:16;;;;;;;3.90;1.52;;;;;;;22.60;31.70;101215.34;5034585;28;20079;-74
2021/05/30 14:17:41;;;;;;;2.80;1.90;;;;;;;22.36;30.97;101221.47;5040425;28;20048;-75
2021/05/30 14:20:09;;;;;;;3.25;1.88;;;;;;;22.55;31.02;101211.63;5045160;28;20102;-73
2021/05/30 14:22:34;;;;;;;2.33;1.65;;;;;;;22.61;31.12;101214.31;5043838;28;20030;-74
2021/05/30 14:25:00;;;;;;;2.65;1.75;;;;;;;22.58;31.38;101208.53;5040625;28;20033;-75
2021/05/30 14:27:26;;;;;;;2.35;1.77;;;;;;;22.69;31.59;101211.38;5046039;28;20458;-75
2021/05/30 14:29:51;;;;;;;2.47;1.90;;;;;;;22.90;31.42;101210.19;5046348;28;20028;-75
2021/05/30 14:32:16;;;;;;;2.92;1.70;;;;;;;23.01;31.00;101206.03;5047805;28;20036;-75
2021/05/30 14:34:42;;;;;;;3.13;1.60;;;;;;;23.16;31.44;101215.69;5035074;28;20041;-76
2021/05/30 14:37:07;;;;;;;3.35;1.88;;;;;;;23.26;30.01;101210.63;5044637;28;20530;-74
2021/05/30 14:39:34;;;;;;;2.10;1.50;;;;;;;23.05;30.34;101209.13;5044758;28;20045;-75
2021/05/30 14:42:00;;;;;;;4.13;1.60;;;;;;;22.75;30.45;101192.69;5036669;28;20064;-76
2021/05/30 14:44:26;;;;;;;3.25;1.70;;;;;;;22.77;30.70;101194.13;5044156;28;20541;-74
2021/05/30 14:46:51;;;;;;;2.20;1.77;;;;;;;22.96;30.73;101195.03;5051764;28;20120;-74
2021/05/30 14:49:16;;;;;;;3.35;2.00;;;;;;;23.06;32.33;101184.63;5044034;28;20038;-74
2021/05/30 14:51:42;;;;;;;2.20;1.80;;;;;;;23.26;31.10;101189.03;5049155;28;20043;-74
2021/05/30 14:54:07;;;;;;;2.20;1.60;;;;;;;23.45;30.03;101182.63;5050750;28;20036;-75
2021/05/30 14:56:33;;;;;;;2.95;1.75;;;;;;;23.45;28.71;101188.03;5051187;28;20029;-74
2021/05/30 14:58:59;;;;;;;3.15;1.75;;;;;;;23.13;28.74;101184.56;5050454;28;20071;-75
2021/05/30 15:01:24;;;;;;;2.13;1.55;;;;;;;22.90;29.19;101190.50;5051335;28;20493;-75
2021/05/30 15:03:49;;;;;;;2.55;1.67;;;;;;;23.11;28.71;101186.66;5049772;28;20031;-74
2021/05/30 15:06:14;;;;;;;4.63;1.50;;;;;;;23.01;28.58;101187.16;5051112;28;20033;-75
2021/05/30 15:08:40;;;;;;;4.35;1.50;;;;;;;23.29;27.92;101180.50;5051442;28;20059;-73
2021/05/30 15:11:05;;;;;;;2.97;1.63;;;;;;;23.73;27.38;101179.50;5050961;28;20053;-74
2021/05/30 15:13:31;;;;;;;2.72;1.50;;;;;;;24.14;27.01;101179.91;5050930;28;20428;-75
2021/05/30 15:15:57;;;;;;;2.30;1.50;;;;;;;24.23;26.34;101175.84;5051119;28;20538;-74
2021/05/30 15:18:25;;;;;;;2.30;1.33;;;;;;;24.57;26.41;101184.38;5050185;28;20120;-74
2021/05/30 15:20:51;;;;;;;2.97;1.38;;;;;;;24.47;24.96;101171.41;5042258;28;20029;-76
2021/05/30 15:23:17;;;;;;;4.78;1.60;;;;;;;24.47;25.61;101171.41;5050744;28;20040;-76
2021/05/30 15:25:46;;;;;;;3.30;1.45;;;;;;;24.23;27.73;101162.31;5050844;28;20400;-75
2021/05/30 15:28:12;;;;;;;2.20;1.50;;;;;;;23.81;26.81;101164.06;5050513;28;20036;-74
2021/05/30 15:30:37;;;;;;;2.78;1.52;;;;;;;23.54;28.25;101154.31;5041558;28;20044;-75
2021/05/30 15:33:03;;;;;;;2.10;1.50;;;;;;;23.22;27.16;101158.16;5051229;28;20029;-73
2021/05/30 15:35:28;;;;;;;2.15;1.50;;;;;;;23.25;27.70;101150.44;5050736;28;20043;-73
2021/05/30 15:37:54;;;;;;;2.75;1.80;;;;;;;23.37;27.34;101147.03;5050616;28;20115;-75
2021/05/30 15:40:19;;;;;;;3.40;1.52;;;;;;;23.56;27.16;101145.19;5050987;28;20488;-76
2021/05/30 15:42:45;;;;;;;2.05;1.30;;;;;;;23.48;26.67;101155.22;5043190;28;20040;-74
2021/05/30 15:45:11;;;;;;;2.22;1.30;;;;;;;23.38;25.89;101149.47;5051270;28;20029;-74
2021/05/30 15:47:37;;;;;;;2.58;1.60;;;;;;;23.40;25.32;101152.78;5050752;28;20025;-75
2021/05/30 15:50:04;;;;;;;3.60;1.60;;;;;;;23.15;25.55;101144.72;5051316;28;20059;-74
2021/05/30 15:52:29;;;;;;;2.13;1.42;;;;;;;22.93;27.07;101152.31;5050095;28;20032;-75
2021/05/30 15:54:54;;;;;;;3.25;1.58;;;;;;;23.06;26.50;101149.53;5048703;28;20271;-75
2021/05/30 15:57:20;;;;;;;2.35;1.65;;;;;;;23.11;26.35;101141.63;5050224;28;20044;-75
2021/05/30 15:59:46;;;;;;;2.42;1.58;;;;;;;22.99;26.13;101137.97;5050048;28;20072;-76
2021/05/30 16:02:11;;;;;;;2.90;1.50;;;;;;;22.93;26.28;101130.75;5035714;28;20113;-75
2021/05/30 16:04:36;;;;;;;2.75;1.70;;;;;;;23.02;26.23;101137.53;5030895;28;20038;-75
2021/05/30 16:07:02;;;;;;;2.95;1.70;;;;;;;23.02;25.91;101137.53;5038124;28;20060;-76
2021/05/30 16:09:27;;;;;;;3.42;1.60;;;;;;;23.08;25.57;101139.38;5039873;28;20037;-76
2021/05/30 16:11:53;;;;;;;2.65;1.50;;;;;;;22.63;26.83;101134.03;5033118;28;20033;-74
2021/05/30 16:14:18;;;;;;;2.45;1.40;;;;;;;22.64;27.02;101135.72;5038392;28;20082;-74
2021/05/30 16:16:44;;;;;;;2.10;1.58;;;;;;;22.69;27.44;101135.88;5038452;28;20393;-74
2021/05/30 16:19:09;;;;;;;2.75;1.60;;;;;;;22.73;27.62;101130.06;5036257;28;20044;-74
2021/05/30 16:21:35;;;;;;;2.95;1.45;;;;;;;22.74;26.83;101124.47;5038331;28;20032;-74
2021/05/30 16:24:04;;;;;;;2.00;1.30;;;;;;;22.78;27.39;101119.44;5047234;28;20033;-75
2021/05/30 16:26:30;;;;;;;3.25;1.70;;;;;;;22.90;27.77;101128.47;5048530;28;20040;-74
2021/05/30 16:28:56;;;;;;;3.05;1.70;;;;;;;22.80;26.93;101126.25;5044956;28;20025;-74
2021/05/30 16:31:22;;;;;;;2.80;1.50;;;;;;;22.73;28.53;101125.47;5045525;28;20508;-79
2021/05/30 16:33:47;;;;;;;1.80;1.30;;;;;;;22.79;27.14;101121.94;5039541;28;20051;-75
2021/05/30 16:36:12;;;;;;;2.47;1.40;;;;;;;22.66;27.02;101111.22;5039672;28;20041;-75
2021/05/30 16:38:38;;;;;;;2.22;1.40;;;;;;;22.62;27.99;101116.22;5038581;28;20033;-75
2021/05/30 16:41:03;;;;;;;2.75;1.60;;;;;;;22.64;27.92;101116.00;5033392;28;20441;-75
2021/05/30 16:43:30;;;;;;;2.80;1.40;;;;;;;22.68;27.13;101114.53;5044618;28;20112;-75
2021/05/30 16:45:56;;;;;;;3.50;1.85;;;;;;;22.57;27.74;101117.91;5037889;28;20497;-74
2021/05/30 16:48:23;;;;;;;3.53;1.83;;;;;;;22.40;28.18;101106.81;5041201;28;20037;-74
2021/05/30 16:50:48;;;;;;;2.78;1.55;;;;;;;;;;5045775;28;20029;-75
2021/05/30 16:53:16;;;;;;;2.88;1.65;;;;;;;;;;5038492;28;20107;-75
2021/05/30 16:55:41;;;;;;;2.42;1.58;;;;;;;22.23;26.93;101110.00;5037955;28;20037;-75
2021/05/30 16:58:06;;;;;;;3.20;1.40;;;;;;;22.15;27.19;101107.53;5038256;28;20382;-74
2021/05/30 17:00:32;;;;;;;2.55;1.42;;;;;;;22.07;27.77;101110.47;5039829;28;20026;-75
2021/05/30 17:02:57;;;;;;;1.73;1.10;;;;;;;22.02;28.12;101111.13;5046928;28;20021;-74
2021/05/30 17:05:22;;;;;;;3.28;1.63;;;;;;;22.16;27.55;101105.66;5039384;28;20029;-76
2021/05/30 17:07:48;;;;;;;4.30;1.50;;;;;;;22.00;27.53;101110.50;5049318;28;20541;-75
2021/05/30 17:10:13;;;;;;;3.22;1.80;;;;;;;21.94;27.46;101115.91;5038248;28;20031;-76
2021/05/30 17:12:38;;;;;;;2.67;1.45;;;;;;;21.79;28.20;101124.25;5042808;28;20110;-75
2021/05/30 17:15:09;;;;;;;6.20;1.75;;;;;;;21.80;27.97;101121.31;5041566;28;20048;-75
2021/05/30 17:17:34;;;;;;;3.15;1.75;;;;;;;21.63;29.53;101118.25;5042531;28;20041;-76
2021/05/30 17:19:59;;;;;;;3.47;1.70;;;;;;;21.60;29.45;101118.69;5035341;28;20420;-75
2021/05/30 17:22:25;;;;;;;5.22;2.00;;;;;;;21.65;28.11;101118.06;5032864;28;20041;-77
2021/05/30 17:24:50;;;;;;;5.10;1.80;;;;;;;21.57;29.82;101120.97;5051159;28;20179;-75
2021/05/30 17:27:16;;;;;;;4.32;1.60;;;;;;;21.47;28.75;101123.25;5044795;28;20039;-75
2021/05/30 17:29:41;;;;;;;2.17;1.40;;;;;;;21.39;29.00;101126.97;5044993;28;20083;-75
2021/05/30 17:32:07;;;;;;;2.88;1.80;;;;;;;21.33;28.87;101123.25;5037862;28;20040;-75
2021/05/30 17:34:32;;;;;;;2.33;1.67;;;;;;;21.30;28.70;101125.53;5041510;28;21743;-74
2021/05/30 17:36:58;;;;;;;3.28;1.70;;;;;;;21.27;28.79;101134.84;5035226;28;20391;-74
2021/05/30 17:39:24;;;;;;;2.92;1.80;;;;;;;21.27;28.73;101124.09;5049477;28;20044;-76
2021/05/30 17:41:50;;;;;;;2.10;1.60;;;;;;;21.05;29.29;101134.22;5043105;28;20029;-76
2021/05/30 17:44:16;;;;;;;2.90;1.83;;;;;;;21.10;29.08;101129.06;5040783;28;20064;-74
2021/05/30 17:46:42;;;;;;;2.90;1.60;;;;;;;20.93;29.92;101127.81;5039060;28;20107;-73
2021/05/30 17:49:07;;;;;;;3.92;1.85;;;;;;;20.90;29.85;101126.34;5041806;28;20037;-75
2021/05/30 17:51:33;;;;;;;2.88;1.75;;;;;;;20.88;29.27;101133.81;5032975;28;20504;-76
2021/05/30 17:53:58;;;;;;;2.33;1.60;;;;;;;20.79;29.71;101125.09;5042613;28;20022;-74
2021/05/30 17:56:23;;;;;;;3.65;2.00;;;;;;;20.76;29.42;101130.03;5033966;28;20559;-75
2021/05/30 17:58:49;;;;;;;3.47;1.60;;;;;;;20.75;29.71;101133.78;5037994;28;20088;-74
2021/05/30 18:01:14;;;;;;;4.03;1.70;;;;;;;20.71;30.14;101128.00;5048986;28;20032;-74
2021/05/30 18:03:40;;;;;;;2.22;1.70;;;;;;;20.71;29.69;101127.13;5042312;28;20029;-75
2021/05/30 18:06:05;;;;;;;2.95;1.70;;;;;;;20.62;30.02;101123.84;5046835;28;20033;-74
2021/05/30 18:08:30;;;;;;;3.15;1.60;;;;;;;20.50;32.09;101125.44;5043584;28;20028;-73
2021/05/30 18:10:58;;;;;;;2.97;1.60;;;;;;;20.49;30.58;101126.44;5044703;28;20040;-74
2021/05/30 18:13:29;;;;;;;2.80;1.77;;;;;;;20.48;30.02;101124.81;5034902;28;20412;-74
2021/05/30 18:15:55;;;;;;;2.60;1.70;;;;;;;20.40;30.05;101124.97;5040525;28;20026;-73
2021/05/30 18:18:22;;;;;;;2.45;1.67;;;;;;;20.34;30.61;101115.88;5032516;28;20509;-75
2021/05/30 18:20:50;;;;;;;3.60;1.90;;;;;;;20.38;30.47;101130.56;5036371;28;20599;-74
2021/05/30 18:23:16;;;;;;;3.60;1.73;;;;;;;20.30;30.39;101128.03;5032596;28;20041;-75
2021/05/30 18:25:43;;;;;;;3.92;1.80;;;;;;;20.33;29.80;101124.94;5046703;28;20037;-74
2021/05/30 18:28:09;;;;;;;2.30;1.50;;;;;;;20.32;30.19;101125.97;5038935;28;20037;-74
2021/05/30 18:30:35;;;;;;;2.35;1.60;;;;;;;20.18;30.67;101122.41;5040112;28;20044;-74
2021/05/30 18:33:01;;;;;;;3.08;1.60;;;;;;;20.13;30.46;101117.63;5046107;28;20037;-74
2021/05/30 18:35:27;;;;;;;2.58;1.52;;;;;;;20.10;31.11;101120.72;5040600;28;20033;-73
2021/05/30 18:37:54;;;;;;;3.88;1.73;;;;;;;20.20;30.32;101116.84;5042213;28;20039;-76
2021/05/30 18:40:21;;;;;;;3.20;1.70;;;;;;;20.14;30.69;101126.53;5041671;28;20025;-74
2021/05/30 18:42:47;;;;;;;3.35;1.63;;;;;;;20.05;30.81;101128.56;5046518;28;20095;-74
2021/05/30 18:45:15;;;;;;;3.17;1.60;;;;;;;19.95;31.28;101130.78;5041703;28;20037;-75
2021/05/30 18:47:41;;;;;;;2.72;1.60;;;;;;;19.93;30.94;101124.78;5038603;28;20085;-74
2021/05/30 18:50:08;;;;;;;2.40;1.58;;;;;;;19.84;31.33;101132.16;5034423;28;20032;-74
2021/05/30 18:52:34;;;;;;;2.90;1.80;;;;;;;19.91;30.90;101124.16;5049418;28;20170;-74
2021/05/30 18:54:59;;;;;;;1.98;1.52;;;;;;;19.81;31.32;101139.81;5043843;28;20493;-74
2021/05/30 18:57:25;;;;;;;2.92;1.58;;;;;;;19.75;31.54;101135.22;5049685;28;20159;-75
2021/05/30 18:59:50;;;;;;;3.35;1.50;;;;;;;19.59;32.52;101133.63;5042534;28;20036;-74
2021/05/30 19:02:15;;;;;;;2.63;1.60;;;;;;;19.52;32.39;101138.94;5044064;28;20037;-74
2021/05/30 19:04:41;;;;;;;3.00;1.55;;;;;;;19.49;32.53;101134.81;5049313;28;20051;-74
2021/05/30 19:07:06;;;;;;;2.83;1.52;;;;;;;19.39;32.61;101139.69;5044867;28;20540;-73
2021/05/30 19:09:32;;;;;;;1.90;1.50;;;;;;;19.31;33.22;101142.53;5047465;28;20029;-74
2021/05/30 19:11:58;;;;;;;3.15;1.80;;;;;;;19.23;33.26;101142.66;5033953;28;20033;-74
2021/05/30 19:14:27;;;;;;;4.38;1.85;;;;;;;19.13;33.97;101151.03;5043328;28;20452;-74
2021/05/30 19:16:53;;;;;;;2.70;1.60;;;;;;;19.08;33.23;101143.56;5050072;28;20051;-75
2021/05/30 19:19:19;;;;;;;3.78;1.73;;;;;;;19.01;33.90;101145.34;5048659;28;20107;-74
2021/05/30 19:21:44;;;;;;;3.45;1.70;;;;;;;18.99;33.88;101146.56;5041270;28;20025;-74
2021/05/30 19:24:11;;;;;;;2.85;1.83;;;;;;;18.91;33.84;101149.38;5028321;28;20033;-74
2021/05/30 19:26:36;;;;;;;2.33;1.38;;;;;;;18.83;34.35;101145.81;5048910;28;20102;-74
2021/05/30 19:29:02;;;;;;;2.83;1.80;;;;;;;18.77;34.40;101145.75;5041965;28;20560;-74
2021/05/30 19:31:27;;;;;;;2.97;1.90;;;;;;;18.78;34.56;101158.09;5047690;28;20029;-74
2021/05/30 19:33:52;;;;;;;5.28;1.80;;;;;;;18.76;34.49;101146.72;5044830;28;20033;-74
2021/05/30 19:36:17;;;;;;;3.88;2.00;;;;;;;18.53;35.22;101155.75;5043173;28;20489;-75
2021/05/30 19:38:43;;;;;;;3.78;2.03;;;;;;;18.59;34.99;101159.50;5041551;28;20060;-74
2021/05/30 19:41:10;;;;;;;3.15;1.80;;;;;;;18.49;35.33;101157.13;5043257;28;20033;-74
2021/05/30 19:43:35;;;;;;;2.20;1.50;;;;;;;18.43;35.56;101157.91;5037756;28;20497;-74
2021/05/30 19:46:01;;;;;;;3.70;2.00;;;;;;;18.42;35.72;101161.59;5043692;28;20178;-74
2021/05/30 19:48:26;;;;;;;2.75;1.63;;;;;;;18.32;35.63;101164.56;5037750;28;20040;-74
2021/05/30 19:50:51;;;;;;;2.63;1.50;;;;;;;18.29;36.15;101161.44;5034626;28;20067;-73
2021/05/30 19:53:17;;;;;;;3.65;1.95;;;;;;;18.19;36.07;101165.25;5036428;28;20400;-74
2021/05/30 19:55:42;;;;;;;3.33;1.70;;;;;;;18.19;36.45;101167.91;5033267;28;20033;-74
2021/05/30 19:58:08;;;;;;;3.58;1.73;;;;;;;18.10;36.62;101161.00;5042607;28;20033;-73
2021/05/30 20:00:37;;;;;;;2.38;1.65;;;;;;;17.97;37.90;101175.03;5042831;28;20033;-74
2021/05/30 20:03:03;;;;;;;3.50;1.95;;;;;;;17.87;37.83;101170.97;5028027;28;20048;-75
2021/05/30 20:05:29;;;;;;;3.80;2.10;;;;;;;17.92;37.20;101171.22;5025999;28;20030;-74
2021/05/30 20:07:54;;;;;;;2.60;1.65;;;;;;;17.77;38.42;101168.53;5034587;28;20036;-74
2021/05/30 20:10:25;;;;;;;2.80;1.63;;;;;;;17.66;37.90;101172.47;5036867;28;20034;-73
2021/05/30 20:12:57;;;;;;;4.28;2.10;;;;;;;17.61;38.21;101174.84;5039049;28;20540;-73
2021/05/30 20:15:24;;;;;;;3.63;2.03;;;;;;;17.53;38.60;101169.59;5045831;28;20106;-74
2021/05/30 20:17:51;;;;;;;2.90;1.90;;;;;;;17.45;39.34;101172.34;5039861;28;20033;-74
2021/05/30 20:20:17;;;;;;;4.10;2.00;;;;;;;17.31;39.02;101172.13;5036815;28;20087;-73
2021/05/30 20:22:43;;;;;;;2.33;1.65;;;;;;;17.17;39.89;101171.06;5030013;28;20137;-74
2021/05/30 20:25:09;;;;;;;2.15;1.40;;;;;;;17.07;43.01;101175.00;5029582;28;20156;-74
2021/05/30 20:28:13;;;;;;;2.10;1.50;;;;;;;16.89;42.60;101175.28;5038094;28;20405;-74
2021/05/30 20:30:27;;;;;;;3.22;1.63;;;;;;;16.75;42.48;101180.34;5018923;28;20060;-74
2021/05/30 20:32:53;;;;;;;3.90;1.75;;;;;;;16.59;42.09;101172.44;5035813;28;20025;-74
2021/05/30 20:35:18;;;;;;;3.95;2.00;;;;;;;16.58;41.67;101177.97;5033066;28;20122;-73
2021/05/30 20:37:43;;;;;;;2.20;1.50;;;;;;;16.55;41.86;101179.97;5040387;28;20029;-74
2021/05/30 20:40:10;;;;;;;2.30;1.40;;;;;;;16.42;45.14;101174.38;5041813;28;20481;-73
2021/05/30 20:42:36;;;;;;;2.58;1.80;;;;;;;16.33;42.49;101170.91;5041913;28;20125;-73
2021/05/30 20:45:03;;;;;;;2.88;2.17;;;;;;;16.21;44.60;101174.97;5042402;28;20108;-73
2021/05/30 20:47:28;;;;;;;3.75;1.77;;;;;;;16.19;44.45;101168.97;5031091;28;20118;-74
2021/05/30 20:49:53;;;;;;;3.47;2.30;;;;;;;16.21;43.45;101169.63;5031081;28;20056;-73
2021/05/30 20:52:19;;;;;;;2.72;1.85;;;;;;;16.14;43.34;101177.47;5048456;28;20052;-73
2021/05/30 20:54:45;;;;;;;2.55;1.92;;;;;;;16.11;43.68;101171.66;5043385;28;20029;-73
2021/05/30 20:57:11;;;;;;;3.47;2.00;;;;;;;16.03;43.88;101166.34;5052289;28;20202;-74
2021/05/30 20:59:36;;;;;;;2.72;1.67;;;;;;;15.87;46.29;101176.06;5041760;28;20140;-73
2021/05/30 21:02:02;;;;;;;3.13;2.20;;;;;;;15.72;46.60;101172.44;5043225;28;20182;-74
2021/05/30 21:04:28;;;;;;;2.63;1.90;;;;;;;15.73;44.98;101176.78;5037828;28;20065;-73
2021/05/30 21:06:53;;;;;;;4.15;2.20;;;;;;;15.59;47.49;101180.06;5038237;28;20130;-74
2021/05/30 21:09:18;;;;;;;3.30;2.35;;;;;;;15.54;47.59;101174.41;5049441;28;20029;-73
2021/05/30 21:11:44;;;;;;;4.22;2.08;;;;;;;15.43;47.51;101170.28;5050220;28;20084;-73
2021/05/30 21:14:10;;;;;;;3.10;2.00;;;;;;;15.35;47.22;101178.25;5037400;28;20044;-74
2021/05/30 21:16:37;;;;;;;3.40;2.10;;;;;;;15.35;47.01;101180.91;5044759;28;20033;-73
2021/05/30 21:19:03;;;;;;;4.07;1.95;;;;;;;15.34;46.61;101181.94;5042806;28;20036;-73
2021/05/30 21:21:28;;;;;;;2.70;1.90;;;;;;;15.29;50.05;101179.75;5041441;28;20033;-73
2021/05/30 21:23:56;;;;;;;2.88;1.80;;;;;;;15.16;51.38;101177.59;5032188;28;20188;-73
2021/05/30 21:26:22;;;;;;;3.40;1.98;;;;;;;15.10;48.17;101178.25;5042478;28;20102;-73
2021/05/30 21:28:47;;;;;;;1.95;1.50;;;;;;;15.10;47.88;101177.44;5051167;28;20234;-73
2021/05/30 21:31:13;;;;;;;2.83;1.98;;;;;;;15.09;49.48;101171.28;5042770;28;20116;-73
2021/05/30 21:33:38;;;;;;;3.42;2.10;;;;;;;15.08;48.00;101177.59;5044580;28;20029;-73
2021/05/30 21:36:03;;;;;;;2.88;1.73;;;;;;;14.94;50.01;101173.75;5043493;28;20104;-73
2021/05/30 21:38:29;;;;;;;4.97;2.15;;;;;;;14.91;48.70;101174.06;5036493;28;20042;-74
2021/05/30 21:40:56;;;;;;;4.35;2.20;;;;;;;14.93;47.89;101166.75;5041929;28;20401;-73
2021/05/30 21:43:21;;;;;;;3.28;2.20;;;;;;;14.80;50.20;101175.25;5041711;28;20038;-74
2021/05/30 21:45:47;;;;;;;2.88;2.05;;;;;;;14.72;50.27;101175.19;5039520;28;20402;-74
2021/05/30 21:48:13;;;;;;;3.72;1.50;;;;;;;14.67;49.67;101174.88;5045039;28;20040;-73
2021/05/30 21:50:38;;;;;;;2.08;1.60;;;;;;;14.68;48.07;101175.69;5046082;28;20220;-74
2021/05/30 21:53:04;;;;;;;2.10;1.60;;;;;;;14.67;47.98;101174.03;5035420;28;20180;-73
2021/05/30 21:55:29;;;;;;;2.60;1.70;;;;;;;14.62;50.57;101167.38;5037088;28;20168;-74
2021/05/30 21:57:55;;;;;;;2.60;1.80;;;;;;;14.63;48.63;101174.38;5038795;28;20037;-74
2021/05/30 22:00:21;;;;;;;2.78;1.65;;;;;;;14.61;49.25;101175.50;5039178;28;20030;-74
2021/05/30 22:02:48;;;;;;;2.30;1.52;;;;;;;14.60;51.28;101172.00;5047762;28;20265;-73
2021/05/30 22:05:14;;;;;;;3.85;2.45;;;;;;;14.60;48.99;101180.00;5031897;28;20036;-73
2021/05/30 22:07:43;;;;;;;2.92;1.73;;;;;;;14.54;49.02;101183.31;5044805;28;20037;-73
2021/05/30 22:10:11;;;;;;;2.67;1.55;;;;;;;14.52;49.74;101171.97;5042434;28;20029;-73
2021/05/30 22:12:36;;;;;;;2.45;1.83;;;;;;;14.48;49.07;101181.25;5038410;28;20734;-73
2021/05/30 22:15:04;;;;;;;3.30;1.90;;;;;;;14.43;50.06;101186.25;5038637;28;20140;-73
2021/05/30 22:19:55;;;;;;;2.03;1.50;;;;;;;14.40;49.13;101181.25;5035537;28;20037;-73
2021/05/30 22:22:20;;;;;;;2.10;1.73;;;;;;;14.35;49.60;101188.84;5028131;28;20528;-75
2021/05/30 22:24:46;;;;;;;2.67;1.80;;;;;;;14.34;49.21;101188.03;5035773;28;20401;-73
2021/05/30 22:27:12;;;;;;;3.20;2.00;;;;;;;14.31;49.65;101191.00;5042106;28;20047;-73
2021/05/30 22:29:38;;;;;;;2.63;1.70;;;;;;;14.26;49.79;101190.66;5038502;28;20048;-74
2021/05/30 22:32:06;;;;;;;2.50;1.80;;;;;;;14.22;50.19;101184.81;5043381;28;20057;-74
2021/05/30 22:34:31;;;;;;;4.50;2.30;;;;;;;14.20;49.73;101184.13;5039885;28;20030;-73
2021/05/30 22:36:57;;;;;;;4.03;1.88;;;;;;;14.14;51.23;101194.59;5034593;28;20448;-73
2021/05/30 22:39:22;;;;;;;2.60;1.92;;;;;;;14.10;51.09;101187.91;5043560;28;20034;-73
2021/05/30 22:41:47;;;;;;;4.00;2.47;;;;;;;14.09;50.66;101187.09;5050554;28;20082;-74
2021/05/30 22:44:13;;;;;;;5.25;2.33;;;;;;;13.99;51.06;101191.66;5040350;28;20086;-73
2021/05/30 22:46:38;;;;;;;3.15;2.22;;;;;;;13.88;51.05;101189.31;5041576;28;20174;-73
2021/05/30 22:49:05;;;;;;;4.03;2.42;;;;;;;13.86;51.58;101189.44;5045891;28;20378;-74
2021/05/30 22:51:31;;;;;;;3.38;2.20;;;;;;;13.77;51.57;101188.56;5046948;28;20124;-73
2021/05/30 22:53:57;;;;;;;2.42;1.88;;;;;;;13.72;52.60;101185.53;5047127;28;20211;-73
2021/05/30 22:56:22;;;;;;;2.47;1.80;;;;;;;13.70;52.53;101181.38;5046049;28;20352;-74
2021/05/30 22:58:48;;;;;;;3.00;2.00;;;;;;;13.73;52.45;101181.03;5040608;28;20623;-73
2021/05/30 23:01:14;;;;;;;3.53;1.92;;;;;;;13.64;53.04;101180.19;5045684;28;20037;-73
2021/05/30 23:03:40;;;;;;;2.80;1.70;;;;;;;13.60;53.23;101170.84;5036587;28;20040;-73
2021/05/30 23:06:05;;;;;;;2.85;2.00;;;;;;;13.63;53.21;101172.34;5038207;28;20505;-75
2021/05/30 23:08:31;;;;;;;2.95;1.70;;;;;;;13.56;53.67;101180.09;5045333;28;20044;-73
2021/05/30 23:11:00;;;;;;;2.28;1.60;;;;;;;13.54;53.38;101176.78;5050108;28;20118;-75
2021/05/30 23:13:25;;;;;;;3.72;1.90;;;;;;;13.51;54.62;101166.47;5043414;28;20033;-74
2021/05/30 23:15:51;;;;;;;2.95;1.60;;;;;;;13.50;52.88;101175.44;5039629;28;20466;-74
2021/05/30 23:18:17;;;;;;;2.72;2.00;;;;;;;13.48;52.49;101178.22;5037621;28;20506;-73
2021/05/30 23:20:44;;;;;;;2.38;1.70;;;;;;;13.46;52.10;101172.22;5033348;28;20033;-73
2021/05/30 23:23:09;;;;;;;2.60;2.00;;;;;;;13.43;52.83;101179.69;5032226;28;20026;-73
2021/05/30 23:25:35;;;;;;;2.83;1.88;;;;;;;13.36;52.27;101172.31;5037189;28;20040;-74
2021/05/30 23:28:00;;;;;;;3.35;1.70;;;;;;;13.23;53.02;101174.53;5040805;28;20208;-73
2021/05/30 23:30:27;;;;;;;3.53;1.70;;;;;;;13.21;54.43;101178.31;5045363;28;20104;-73
2021/05/30 23:32:52;;;;;;;2.78;1.80;;;;;;;13.16;54.70;101176.94;5048353;28;20098;-73
2021/05/30 23:35:20;;;;;;;4.82;2.00;;;;;;;13.21;52.91;101167.72;5045210;28;20477;-74
2021/05/30 23:37:46;;;;;;;3.42;2.08;;;;;;;13.11;54.81;101170.44;5034802;28;20040;-74
2021/05/30 23:40:12;;;;;;;3.03;1.65;;;;;;;13.08;54.51;101174.22;5039608;28;20034;-73
2021/05/30 23:42:37;;;;;;;3.70;2.08;;;;;;;13.08;54.38;101166.25;5047714;28;20042;-73
2021/05/30 23:45:04;;;;;;;2.63;1.65;;;;;;;13.09;53.15;101169.75;5051777;28;20382;-73
2021/05/30 23:47:30;;;;;;;3.28;1.90;;;;;;;12.98;55.56;101170.81;5047816;28;20116;-73
2021/05/30 23:49:55;;;;;;;2.47;1.75;;;;;;;12.92;55.05;101172.25;5050358;28;20116;-73
2021/05/30 23:52:20;;;;;;;2.92;2.00;;;;;;;12.90;53.84;101166.25;5040811;28;20048;-74
2021/05/30 23:54:46;;;;;;;3.63;2.00;;;;;;;12.87;54.66;101163.91;5046630;28;20040;-73
2021/05/30 23:57:11;;;;;;;3.60;1.80;;;;;;;12.88;53.13;101167.41;5042484;28;20037;-73
2021/05/30 23:59:36;;;;;;;3.25;1.83;;;;;;;12.77;56.86;101159.66;5042698;28;20030;-73
